sensor_id;sensor_type;location;lat;lon;timestamp;temperature;humidity
20504;DHT22;10410;51.046;6.980;2023-02-28T00:03:17;0.20;99.90
20504;DHT22;10410;51.046;6.980;2023-02-28T00:10:20;0.20;99.90
20504;DHT22;10410;51.046;6.980;2023-02-28T00:17:21;0.20;99.90
20504;DHT22;10410;51.046;6.980;2023-02-28T00:24:22;0.20;99.90
20504;DHT22;10410;51.046;6.980;2023-02-28T00:31:22;0.20;99.90
20504;DHT22;10410;51.046;6.980;2023-02-28T00:38:22;0.20;99.90
20504;DHT22;10410;51.046;6.980;2023-02-28T00:45:23;0.20;99.90
20504;DHT22;10410;51.046;6.980;2023-02-28T00:52:23;0.20;99.90
20504;DHT22;10410;51.046;6.980;2023-02-28T00:59:24;0.20;99.90
20504;DHT22;10410;51.046;6.980;2023-02-28T01:06:24;0.10;99.90
20504;DHT22;10410;51.046;6.980;2023-02-28T01:13:25;0.10;99.90
20504;DHT22;10410;51.046;6.980;2023-02-28T01:20:25;0.00;99.90
20504;DHT22;10410;51.046;6.980;2023-02-28T01:27:26;0.00;99.90
20504;DHT22;10410;51.046;6.980;2023-02-28T01:34:27;0.00;99.90
20504;DHT22;10410;51.046;6.980;2023-02-28T01:41:29;0.00;99.90
20504;DHT22;10410;51.046;6.980;2023-02-28T01:48:37;0.00;99.90
20504;DHT22;10410;51.046;6.980;2023-02-28T01:55:39;-0.10;99.90
20504;DHT22;10410;51.046;6.980;2023-02-28T02:02:47;-0.10;99.90
20504;DHT22;10410;51.046;6.980;2023-02-28T02:09:48;-0.10;99.90
20504;DHT22;10410;51.046;6.980;2023-02-28T02:39:02;-0.20;99.90
20504;DHT22;10410;51.046;6.980;2023-02-28T02:46:10;-0.20;99.90
20504;DHT22;10410;51.046;6.980;2023-02-28T02:53:13;-0.30;99.90
20504;DHT22;10410;51.046;6.980;2023-02-28T03:00:23;-0.30;99.90
20504;DHT22;10410;51.046;6.980;2023-02-28T03:07:25;-0.40;99.90
20504;DHT22;10410;51.046;6.980;2023-02-28T03:29:37;-0.60;99.90
20504;DHT22;10410;51.046;6.980;2023-02-28T03:36:45;-0.70;99.90
20504;DHT22;10410;51.046;6.980;2023-02-28T03:43:55;-0.70;99.90
20504;DHT22;10410;51.046;6.980;2023-02-28T03:50:57;-0.80;99.90
20504;DHT22;10410;51.046;6.980;2023-02-28T03:58:01;-0.90;99.90
20504;DHT22;10410;51.046;6.980;2023-02-28T04:05:05;-1.00;99.90
20504;DHT22;10410;51.046;6.980;2023-02-28T04:12:06;-1.10;99.90
20504;DHT22;10410;51.046;6.980;2023-02-28T04:19:08;-1.10;99.90
20504;DHT22;10410;51.046;6.980;2023-02-28T04:26:09;-1.20;99.90
20504;DHT22;10410;51.046;6.980;2023-02-28T04:33:09;-1.20;99.90
20504;DHT22;10410;51.046;6.980;2023-02-28T04:40:10;-1.20;99.90
20504;DHT22;10410;51.046;6.980;2023-02-28T04:47:10;-1.20;99.90
20504;DHT22;10410;51.046;6.980;2023-02-28T04:54:11;-1.10;99.90
20504;DHT22;10410;51.046;6.980;2023-02-28T05:01:21;-1.10;99.90
20504;DHT22;10410;51.046;6.980;2023-02-28T05:08:21;-1.00;99.90
20504;DHT22;10410;51.046;6.980;2023-02-28T05:15:22;-1.00;99.90
20504;DHT22;10410;51.046;6.980;2023-02-28T05:22:22;-1.00;99.90
20504;DHT22;10410;51.046;6.980;2023-02-28T05:29:23;-1.00;99.90
20504;DHT22;10410;51.046;6.980;2023-02-28T05:36:23;-1.00;99.90
20504;DHT22;10410;51.046;6.980;2023-02-28T05:43:24;-1.00;99.90
20504;DHT22;10410;51.046;6.980;2023-02-28T05:50:24;-1.00;99.90
20504;DHT22;10410;51.046;6.980;2023-02-28T05:57:25;-0.90;99.90
20504;DHT22;10410;51.046;6.980;2023-02-28T06:04:25;-0.80;99.90
20504;DHT22;10410;51.046;6.980;2023-02-28T06:11:32;-0.80;99.90
20504;DHT22;10410;51.046;6.980;2023-02-28T06:18:32;-0.70;99.90
20504;DHT22;10410;51.046;6.980;2023-02-28T06:25:33;-0.80;99.90
20504;DHT22;10410;51.046;6.980;2023-02-28T06:32:33;-0.90;99.90
20504;DHT22;10410;51.046;6.980;2023-02-28T06:39:34;-0.90;99.90
20504;DHT22;10410;51.046;6.980;2023-02-28T06:46:34;-0.90;99.90
20504;DHT22;10410;51.046;6.980;2023-02-28T06:53:35;-0.80;99.90
20504;DHT22;10410;51.046;6.980;2023-02-28T07:00:35;-0.80;99.90
20504;DHT22;10410;51.046;6.980;2023-02-28T07:07:35;-0.70;99.90
20504;DHT22;10410;51.046;6.980;2023-02-28T07:14:38;-0.60;99.90
20504;DHT22;10410;51.046;6.980;2023-02-28T07:21:38;-0.50;99.90
20504;DHT22;10410;51.046;6.980;2023-02-28T07:28:39;-0.30;99.90
20504;DHT22;10410;51.046;6.980;2023-02-28T07:35:40;-0.20;99.90
20504;DHT22;10410;51.046;6.980;2023-02-28T07:42:41;-0.10;99.90
20504;DHT22;10410;51.046;6.980;2023-02-28T07:49:41;0.10;99.90
20504;DHT22;10410;51.046;6.980;2023-02-28T07:56:42;0.20;99.90
20504;DHT22;10410;51.046;6.980;2023-02-28T08:03:42;0.40;99.90
20504;DHT22;10410;51.046;6.980;2023-02-28T08:10:43;0.60;99.90
20504;DHT22;10410;51.046;6.980;2023-02-28T08:17:43;0.80;99.90
20504;DHT22;10410;51.046;6.980;2023-02-28T08:24:43;1.00;99.90
20504;DHT22;10410;51.046;6.980;2023-02-28T08:31:44;1.20;99.90
20504;DHT22;10410;51.046;6.980;2023-02-28T08:38:45;1.50;99.90
20504;DHT22;10410;51.046;6.980;2023-02-28T08:45:46;1.70;99.90
20504;DHT22;10410;51.046;6.980;2023-02-28T08:52:46;1.80;99.90
20504;DHT22;10410;51.046;6.980;2023-02-28T08:59:47;1.90;99.90
20504;DHT22;10410;51.046;6.980;2023-02-28T09:06:47;2.00;99.90
20504;DHT22;10410;51.046;6.980;2023-02-28T09:13:49;2.10;99.90
20504;DHT22;10410;51.046;6.980;2023-02-28T09:20:49;2.20;99.90
20504;DHT22;10410;51.046;6.980;2023-02-28T09:27:50;2.30;99.90
20504;DHT22;10410;51.046;6.980;2023-02-28T09:34:50;2.40;99.90
20504;DHT22;10410;51.046;6.980;2023-02-28T09:41:52;2.60;99.90
20504;DHT22;10410;51.046;6.980;2023-02-28T09:48:52;2.70;99.90
20504;DHT22;10410;51.046;6.980;2023-02-28T09:55:59;2.90;99.90
20504;DHT22;10410;51.046;6.980;2023-02-28T10:03:30;3.00;99.90
20504;DHT22;10410;51.046;6.980;2023-02-28T10:10:35;3.20;99.90
20504;DHT22;10410;51.046;6.980;2023-02-28T10:17:41;3.30;99.90
20504;DHT22;10410;51.046;6.980;2023-02-28T10:24:59;3.50;99.90
20504;DHT22;10410;51.046;6.980;2023-02-28T10:32:06;3.70;99.90
20504;DHT22;10410;51.046;6.980;2023-02-28T10:46:34;4.00;99.90
20504;DHT22;10410;51.046;6.980;2023-02-28T10:53:50;4.00;99.90
20504;DHT22;10410;51.046;6.980;2023-02-28T11:01:01;4.10;99.90
20504;DHT22;10410;51.046;6.980;2023-02-28T11:08:14;4.20;99.90
20504;DHT22;10410;51.046;6.980;2023-02-28T11:15:24;4.30;99.30
20504;DHT22;10410;51.046;6.980;2023-02-28T11:22:28;4.40;99.90
20504;DHT22;10410;51.046;6.980;2023-02-28T11:29:31;4.40;98.50
20504;DHT22;10410;51.046;6.980;2023-02-28T11:36:32;4.40;99.70
20504;DHT22;10410;51.046;6.980;2023-02-28T11:44:01;4.20;97.80
20504;DHT22;10410;51.046;6.980;2023-02-28T11:51:13;4.10;98.50
20504;DHT22;10410;51.046;6.980;2023-02-28T11:58:32;4.30;98.80
20504;DHT22;10410;51.046;6.980;2023-02-28T12:05:39;4.50;98.40
20504;DHT22;10410;51.046;6.980;2023-02-28T12:20:25;4.90;97.20
20504;DHT22;10410;51.046;6.980;2023-02-28T12:27:34;5.10;97.40
20504;DHT22;10410;51.046;6.980;2023-02-28T12:34:39;5.30;96.60
20504;DHT22;10410;51.046;6.980;2023-02-28T12:41:57;5.60;97.30
20504;DHT22;10410;51.046;6.980;2023-02-28T12:49:07;5.80;95.10
20504;DHT22;10410;51.046;6.980;2023-02-28T12:56:18;5.90;95.20
20504;DHT22;10410;51.046;6.980;2023-02-28T13:03:31;6.00;94.40
20504;DHT22;10410;51.046;6.980;2023-02-28T13:10:45;6.30;94.80
20504;DHT22;10410;51.046;6.980;2023-02-28T13:17:48;6.70;94.60
20504;DHT22;10410;51.046;6.980;2023-02-28T13:24:56;7.20;94.40
20504;DHT22;10410;51.046;6.980;2023-02-28T13:46:38;8.00;91.60
20504;DHT22;10410;51.046;6.980;2023-02-28T13:54:04;8.10;90.40
20504;DHT22;10410;51.046;6.980;2023-02-28T14:01:33;8.20;89.10
20504;DHT22;10410;51.046;6.980;2023-02-28T14:08:37;8.40;89.60
20504;DHT22;10410;51.046;6.980;2023-02-28T14:16:00;8.60;89.80
20504;DHT22;10410;51.046;6.980;2023-02-28T14:30:43;9.00;88.60
20504;DHT22;10410;51.046;6.980;2023-02-28T14:37:50;9.60;88.90
20504;DHT22;10410;51.046;6.980;2023-02-28T14:44:54;10.20;84.80
20504;DHT22;10410;51.046;6.980;2023-02-28T14:52:19;11.50;85.00
20504;DHT22;10410;51.046;6.980;2023-02-28T14:59:26;12.80;85.60
20504;DHT22;10410;51.046;6.980;2023-02-28T15:06:27;14.30;79.50
20504;DHT22;10410;51.046;6.980;2023-02-28T15:13:43;15.50;77.90
20504;DHT22;10410;51.046;6.980;2023-02-28T15:20:45;16.00;69.50
20504;DHT22;10410;51.046;6.980;2023-02-28T15:27:52;16.20;70.10
20504;DHT22;10410;51.046;6.980;2023-02-28T15:34:53;16.20;66.60
20504;DHT22;10410;51.046;6.980;2023-02-28T15:42:11;15.40;66.10
20504;DHT22;10410;51.046;6.980;2023-02-28T15:49:19;13.80;67.20
20504;DHT22;10410;51.046;6.980;2023-02-28T15:56:26;11.80;68.70
20504;DHT22;10410;51.046;6.980;2023-02-28T16:03:32;10.30;69.40
20504;DHT22;10410;51.046;6.980;2023-02-28T16:10:34;9.20;72.20
20504;DHT22;10410;51.046;6.980;2023-02-28T16:17:38;8.70;73.70
20504;DHT22;10410;51.046;6.980;2023-02-28T16:24:38;8.30;75.20
20504;DHT22;10410;51.046;6.980;2023-02-28T16:31:39;8.00;75.70
20504;DHT22;10410;51.046;6.980;2023-02-28T16:38:40;7.70;76.40
20504;DHT22;10410;51.046;6.980;2023-02-28T16:45:40;7.30;76.60
20504;DHT22;10410;51.046;6.980;2023-02-28T16:52:40;7.00;77.80
20504;DHT22;10410;51.046;6.980;2023-02-28T16:59:41;6.70;78.60
20504;DHT22;10410;51.046;6.980;2023-02-28T17:06:41;6.50;79.30
20504;DHT22;10410;51.046;6.980;2023-02-28T17:13:42;6.30;79.90
20504;DHT22;10410;51.046;6.980;2023-02-28T17:20:42;6.00;81.30
20504;DHT22;10410;51.046;6.980;2023-02-28T17:27:43;5.70;83.40
20504;DHT22;10410;51.046;6.980;2023-02-28T17:34:43;5.40;84.50
20504;DHT22;10410;51.046;6.980;2023-02-28T17:41:44;5.10;85.70
20504;DHT22;10410;51.046;6.980;2023-02-28T17:48:44;4.90;87.00
20504;DHT22;10410;51.046;6.980;2023-02-28T17:55:44;4.70;88.10
20504;DHT22;10410;51.046;6.980;2023-02-28T18:02:45;4.60;88.90
20504;DHT22;10410;51.046;6.980;2023-02-28T18:09:45;4.50;89.90
20504;DHT22;10410;51.046;6.980;2023-02-28T18:16:46;4.30;90.20
20504;DHT22;10410;51.046;6.980;2023-02-28T18:23:46;4.10;91.00
20504;DHT22;10410;51.046;6.980;2023-02-28T18:30:47;3.90;91.30
20504;DHT22;10410;51.046;6.980;2023-02-28T18:37:47;3.80;92.00
20504;DHT22;10410;51.046;6.980;2023-02-28T18:44:48;3.70;92.50
20504;DHT22;10410;51.046;6.980;2023-02-28T18:51:48;3.60;92.90
20504;DHT22;10410;51.046;6.980;2023-02-28T18:58:49;3.40;93.30
20504;DHT22;10410;51.046;6.980;2023-02-28T19:05:56;3.30;93.70
20504;DHT22;10410;51.046;6.980;2023-02-28T19:12:57;3.20;94.40
20504;DHT22;10410;51.046;6.980;2023-02-28T19:19:58;3.20;94.80
20504;DHT22;10410;51.046;6.980;2023-02-28T19:26:58;3.10;95.10
20504;DHT22;10410;51.046;6.980;2023-02-28T19:33:59;3.10;95.40
20504;DHT22;10410;51.046;6.980;2023-02-28T19:41:01;3.00;95.70
20504;DHT22;10410;51.046;6.980;2023-02-28T19:48:02;2.90;96.10
20504;DHT22;10410;51.046;6.980;2023-02-28T19:55:03;2.80;96.50
20504;DHT22;10410;51.046;6.980;2023-02-28T20:02:05;2.70;96.90
20504;DHT22;10410;51.046;6.980;2023-02-28T20:09:05;2.60;97.20
20504;DHT22;10410;51.046;6.980;2023-02-28T20:16:08;2.40;97.70
20504;DHT22;10410;51.046;6.980;2023-02-28T20:23:09;2.30;98.00
20504;DHT22;10410;51.046;6.980;2023-02-28T20:30:10;2.20;98.30
20504;DHT22;10410;51.046;6.980;2023-02-28T20:37:11;2.10;98.70
20504;DHT22;10410;51.046;6.980;2023-02-28T20:44:12;2.00;99.00
20504;DHT22;10410;51.046;6.980;2023-02-28T20:51:13;1.90;99.40
20504;DHT22;10410;51.046;6.980;2023-02-28T20:58:13;1.80;99.80
20504;DHT22;10410;51.046;6.980;2023-02-28T21:05:14;1.70;99.90
20504;DHT22;10410;51.046;6.980;2023-02-28T21:12:14;1.60;99.90
20504;DHT22;10410;51.046;6.980;2023-02-28T21:19:15;1.50;99.90
20504;DHT22;10410;51.046;6.980;2023-02-28T21:26:21;1.40;99.90
20504;DHT22;10410;51.046;6.980;2023-02-28T21:33:22;1.30;99.90
20504;DHT22;10410;51.046;6.980;2023-02-28T21:40:23;1.20;99.90
20504;DHT22;10410;51.046;6.980;2023-02-28T21:47:23;1.10;99.90
20504;DHT22;10410;51.046;6.980;2023-02-28T21:54:24;1.00;99.90
20504;DHT22;10410;51.046;6.980;2023-02-28T22:01:27;1.00;99.90
20504;DHT22;10410;51.046;6.980;2023-02-28T22:08:31;1.00;99.90
20504;DHT22;10410;51.046;6.980;2023-02-28T22:15:36;0.90;99.90
20504;DHT22;10410;51.046;6.980;2023-02-28T22:22:37;0.80;99.90
20504;DHT22;10410;51.046;6.980;2023-02-28T22:29:37;0.70;99.90
20504;DHT22;10410;51.046;6.980;2023-02-28T22:36:39;0.60;99.90
20504;DHT22;10410;51.046;6.980;2023-02-28T22:43:41;0.50;99.90
20504;DHT22;10410;51.046;6.980;2023-02-28T22:50:42;0.40;99.90
20504;DHT22;10410;51.046;6.980;2023-02-28T22:57:42;0.40;99.90
20504;DHT22;10410;51.046;6.980;2023-02-28T23:04:43;0.30;99.90
20504;DHT22;10410;51.046;6.980;2023-02-28T23:11:45;0.30;99.90
20504;DHT22;10410;51.046;6.980;2023-02-28T23:18:46;0.20;99.90
20504;DHT22;10410;51.046;6.980;2023-02-28T23:25:47;0.10;99.90
20504;DHT22;10410;51.046;6.980;2023-02-28T23:32:47;0.00;99.90
20504;DHT22;10410;51.046;6.980;2023-02-28T23:39:49;-0.10;99.90
20504;DHT22;10410;51.046;6.980;2023-02-28T23:46:51;-0.20;99.90
20504;DHT22;10410;51.046;6.980;2023-02-28T23:53:52;-0.30;99.90
